sensor_id;sensor_type;location;lat;lon;timestamp;P1;durP1;ratioP1;P2;durP2;ratioP2
56718;SDS011;42597;40.636;0.278;2023-04-24T00:00:23;2.72;;;1.23;;
56718;SDS011;42597;40.636;0.278;2023-04-24T00:02:49;2.00;;;0.73;;
56718;SDS011;42597;40.636;0.278;2023-04-24T00:05:15;1.60;;;0.30;;
56718;SDS011;42597;40.636;0.278;2023-04-24T00:07:42;2.47;;;0.73;;
56718;SDS011;42597;40.636;0.278;2023-04-24T00:10:10;1.10;;;0.55;;
56718;SDS011;42597;40.636;0.278;2023-04-24T00:12:36;1.60;;;0.73;;
56718;SDS011;42597;40.636;0.278;2023-04-24T00:15:02;2.83;;;1.27;;
56718;SDS011;42597;40.636;0.278;2023-04-24T00:17:28;2.10;;;0.70;;
56718;SDS011;42597;40.636;0.278;2023-04-24T00:19:54;4.45;;;1.20;;
56718;SDS011;42597;40.636;0.278;2023-04-24T00:22:28;2.30;;;1.05;;
56718;SDS011;42597;40.636;0.278;2023-04-24T00:24:54;6.93;;;0.93;;
56718;SDS011;42597;40.636;0.278;2023-04-24T00:27:20;3.08;;;1.33;;
56718;SDS011;42597;40.636;0.278;2023-04-24T00:29:46;2.42;;;1.10;;
56718;SDS011;42597;40.636;0.278;2023-04-24T00:32:12;1.50;;;0.90;;
56718;SDS011;42597;40.636;0.278;2023-04-24T00:34:38;2.17;;;1.30;;
56718;SDS011;42597;40.636;0.278;2023-04-24T00:37:04;2.60;;;1.15;;
56718;SDS011;42597;40.636;0.278;2023-04-24T00:39:30;1.83;;;1.33;;
56718;SDS011;42597;40.636;0.278;2023-04-24T00:41:56;3.42;;;1.42;;
56718;SDS011;42597;40.636;0.278;2023-04-24T00:44:22;0.80;;;0.52;;
56718;SDS011;42597;40.636;0.278;2023-04-24T00:46:48;1.55;;;0.90;;
56718;SDS011;42597;40.636;0.278;2023-04-24T00:49:22;9.45;;;2.20;;
56718;SDS011;42597;40.636;0.278;2023-04-24T00:51:48;2.72;;;1.25;;
56718;SDS011;42597;40.636;0.278;2023-04-24T00:54:16;2.35;;;0.90;;
56718;SDS011;42597;40.636;0.278;2023-04-24T00:56:42;1.10;;;0.50;;
56718;SDS011;42597;40.636;0.278;2023-04-24T00:59:10;1.45;;;0.70;;
56718;SDS011;42597;40.636;0.278;2023-04-24T01:01:37;2.05;;;1.23;;
56718;SDS011;42597;40.636;0.278;2023-04-24T01:04:07;0.90;;;0.70;;
56718;SDS011;42597;40.636;0.278;2023-04-24T01:06:34;0.95;;;0.60;;
56718;SDS011;42597;40.636;0.278;2023-04-24T01:09:00;0.52;;;0.43;;
56718;SDS011;42597;40.636;0.278;2023-04-24T01:11:26;2.05;;;0.80;;
56718;SDS011;42597;40.636;0.278;2023-04-24T01:13:52;0.25;;;0.22;;
56718;SDS011;42597;40.636;0.278;2023-04-24T01:16:18;1.65;;;0.85;;
56718;SDS011;42597;40.636;0.278;2023-04-24T01:18:46;2.05;;;0.85;;
56718;SDS011;42597;40.636;0.278;2023-04-24T01:21:13;2.63;;;0.73;;
56718;SDS011;42597;40.636;0.278;2023-04-24T01:23:42;0.85;;;0.65;;
56718;SDS011;42597;40.636;0.278;2023-04-24T01:26:12;1.55;;;0.98;;
56718;SDS011;42597;40.636;0.278;2023-04-24T01:28:39;0.25;;;0.25;;
56718;SDS011;42597;40.636;0.278;2023-04-24T01:31:05;0.95;;;0.65;;
56718;SDS011;42597;40.636;0.278;2023-04-24T01:33:31;0.50;;;0.47;;
56718;SDS011;42597;40.636;0.278;2023-04-24T01:35:57;0.77;;;0.40;;
56718;SDS011;42597;40.636;0.278;2023-04-24T01:38:23;1.10;;;0.90;;
56718;SDS011;42597;40.636;0.278;2023-04-24T01:40:49;1.40;;;0.40;;
56718;SDS011;42597;40.636;0.278;2023-04-24T01:43:16;0.77;;;0.50;;
56718;SDS011;42597;40.636;0.278;2023-04-24T01:45:42;0.77;;;0.40;;
56718;SDS011;42597;40.636;0.278;2023-04-24T01:48:08;1.17;;;0.55;;
56718;SDS011;42597;40.636;0.278;2023-04-24T01:50:34;0.80;;;0.43;;
56718;SDS011;42597;40.636;0.278;2023-04-24T01:53:00;0.45;;;0.35;;
56718;SDS011;42597;40.636;0.278;2023-04-24T01:55:25;2.75;;;0.80;;
56718;SDS011;42597;40.636;0.278;2023-04-24T01:57:52;0.55;;;0.47;;
56718;SDS011;42597;40.636;0.278;2023-04-24T02:00:21;2.20;;;0.60;;
56718;SDS011;42597;40.636;0.278;2023-04-24T02:02:47;1.95;;;0.85;;
56718;SDS011;42597;40.636;0.278;2023-04-24T02:05:13;1.05;;;0.65;;
56718;SDS011;42597;40.636;0.278;2023-04-24T02:07:38;1.80;;;0.57;;
56718;SDS011;42597;40.636;0.278;2023-04-24T02:10:05;1.75;;;0.57;;
56718;SDS011;42597;40.636;0.278;2023-04-24T02:12:31;1.38;;;0.65;;
56718;SDS011;42597;40.636;0.278;2023-04-24T02:14:57;0.63;;;0.40;;
56718;SDS011;42597;40.636;0.278;2023-04-24T02:17:22;3.50;;;1.10;;
56718;SDS011;42597;40.636;0.278;2023-04-24T02:19:48;2.88;;;1.38;;
56718;SDS011;42597;40.636;0.278;2023-04-24T02:22:14;6.35;;;1.42;;
56718;SDS011;42597;40.636;0.278;2023-04-24T02:24:40;4.28;;;1.08;;
56718;SDS011;42597;40.636;0.278;2023-04-24T02:27:05;2.92;;;1.10;;
56718;SDS011;42597;40.636;0.278;2023-04-24T02:29:31;3.55;;;1.45;;
56718;SDS011;42597;40.636;0.278;2023-04-24T02:31:57;4.38;;;1.83;;
56718;SDS011;42597;40.636;0.278;2023-04-24T02:34:23;4.80;;;1.75;;
56718;SDS011;42597;40.636;0.278;2023-04-24T02:36:49;4.80;;;1.70;;
56718;SDS011;42597;40.636;0.278;2023-04-24T02:39:14;4.20;;;1.77;;
56718;SDS011;42597;40.636;0.278;2023-04-24T02:41:43;2.63;;;1.35;;
56718;SDS011;42597;40.636;0.278;2023-04-24T02:44:09;2.72;;;1.70;;
56718;SDS011;42597;40.636;0.278;2023-04-24T02:46:35;2.80;;;1.38;;
56718;SDS011;42597;40.636;0.278;2023-04-24T02:49:01;2.55;;;1.45;;
56718;SDS011;42597;40.636;0.278;2023-04-24T02:51:27;2.88;;;1.55;;
56718;SDS011;42597;40.636;0.278;2023-04-24T02:53:53;4.65;;;1.80;;
56718;SDS011;42597;40.636;0.278;2023-04-24T02:56:19;3.83;;;1.90;;
56718;SDS011;42597;40.636;0.278;2023-04-24T02:58:45;4.43;;;1.10;;
56718;SDS011;42597;40.636;0.278;2023-04-24T03:01:11;3.97;;;1.35;;
56718;SDS011;42597;40.636;0.278;2023-04-24T03:03:37;2.78;;;1.40;;
56718;SDS011;42597;40.636;0.278;2023-04-24T03:06:03;4.15;;;1.58;;
56718;SDS011;42597;40.636;0.278;2023-04-24T03:08:31;5.13;;;1.63;;
56718;SDS011;42597;40.636;0.278;2023-04-24T03:10:57;3.15;;;1.20;;
56718;SDS011;42597;40.636;0.278;2023-04-24T03:13:23;3.22;;;1.45;;
56718;SDS011;42597;40.636;0.278;2023-04-24T03:15:48;2.15;;;1.13;;
56718;SDS011;42597;40.636;0.278;2023-04-24T03:18:15;5.68;;;1.75;;
56718;SDS011;42597;40.636;0.278;2023-04-24T03:20:41;2.20;;;1.25;;
56718;SDS011;42597;40.636;0.278;2023-04-24T03:23:06;2.35;;;1.23;;
56718;SDS011;42597;40.636;0.278;2023-04-24T03:25:32;3.22;;;1.70;;
56718;SDS011;42597;40.636;0.278;2023-04-24T03:27:58;1.80;;;1.30;;
56718;SDS011;42597;40.636;0.278;2023-04-24T03:30:23;4.40;;;1.35;;
56718;SDS011;42597;40.636;0.278;2023-04-24T03:32:49;3.78;;;2.00;;
56718;SDS011;42597;40.636;0.278;2023-04-24T03:35:15;4.60;;;1.50;;
56718;SDS011;42597;40.636;0.278;2023-04-24T03:37:41;3.92;;;2.10;;
56718;SDS011;42597;40.636;0.278;2023-04-24T03:40:07;2.80;;;1.63;;
56718;SDS011;42597;40.636;0.278;2023-04-24T03:42:33;4.05;;;2.05;;
56718;SDS011;42597;40.636;0.278;2023-04-24T03:44:58;3.80;;;1.58;;
56718;SDS011;42597;40.636;0.278;2023-04-24T03:47:24;5.30;;;1.70;;
56718;SDS011;42597;40.636;0.278;2023-04-24T03:49:50;2.00;;;1.27;;
56718;SDS011;42597;40.636;0.278;2023-04-24T03:52:16;4.82;;;1.90;;
56718;SDS011;42597;40.636;0.278;2023-04-24T03:54:42;3.40;;;1.30;;
56718;SDS011;42597;40.636;0.278;2023-04-24T03:57:07;2.55;;;1.02;;
56718;SDS011;42597;40.636;0.278;2023-04-24T03:59:33;2.60;;;1.30;;
56718;SDS011;42597;40.636;0.278;2023-04-24T04:01:59;3.20;;;1.13;;
56718;SDS011;42597;40.636;0.278;2023-04-24T04:04:25;1.70;;;0.90;;
56718;SDS011;42597;40.636;0.278;2023-04-24T04:06:50;1.52;;;0.65;;
56718;SDS011;42597;40.636;0.278;2023-04-24T04:09:17;0.88;;;0.55;;
56718;SDS011;42597;40.636;0.278;2023-04-24T04:11:43;2.65;;;0.40;;
56718;SDS011;42597;40.636;0.278;2023-04-24T04:14:08;0.88;;;0.60;;
56718;SDS011;42597;40.636;0.278;2023-04-24T04:16:34;0.55;;;0.40;;
56718;SDS011;42597;40.636;0.278;2023-04-24T04:19:01;1.00;;;0.73;;
56718;SDS011;42597;40.636;0.278;2023-04-24T04:21:28;1.42;;;0.90;;
56718;SDS011;42597;40.636;0.278;2023-04-24T04:23:54;0.95;;;0.52;;
56718;SDS011;42597;40.636;0.278;2023-04-24T04:26:19;1.00;;;0.73;;
56718;SDS011;42597;40.636;0.278;2023-04-24T04:28:46;0.90;;;0.50;;
56718;SDS011;42597;40.636;0.278;2023-04-24T04:31:13;0.65;;;0.43;;
56718;SDS011;42597;40.636;0.278;2023-04-24T04:33:38;0.32;;;0.28;;
56718;SDS011;42597;40.636;0.278;2023-04-24T04:36:04;1.75;;;0.65;;
56718;SDS011;42597;40.636;0.278;2023-04-24T04:38:30;2.35;;;0.88;;
56718;SDS011;42597;40.636;0.278;2023-04-24T04:40:56;1.13;;;0.43;;
56718;SDS011;42597;40.636;0.278;2023-04-24T04:43:24;0.32;;;0.32;;
56718;SDS011;42597;40.636;0.278;2023-04-24T04:45:51;0.52;;;0.45;;
56718;SDS011;42597;40.636;0.278;2023-04-24T04:48:17;0.77;;;0.50;;
56718;SDS011;42597;40.636;0.278;2023-04-24T04:50:44;1.75;;;0.63;;
56718;SDS011;42597;40.636;0.278;2023-04-24T04:53:10;3.22;;;0.88;;
56718;SDS011;42597;40.636;0.278;2023-04-24T04:55:36;1.08;;;0.40;;
56718;SDS011;42597;40.636;0.278;2023-04-24T04:58:02;0.82;;;0.50;;
56718;SDS011;42597;40.636;0.278;2023-04-24T05:00:28;0.95;;;0.60;;
56718;SDS011;42597;40.636;0.278;2023-04-24T05:02:59;1.25;;;0.50;;
56718;SDS011;42597;40.636;0.278;2023-04-24T05:05:25;3.67;;;1.70;;
56718;SDS011;42597;40.636;0.278;2023-04-24T05:07:51;1.98;;;0.70;;
56718;SDS011;42597;40.636;0.278;2023-04-24T05:10:17;1.85;;;0.80;;
56718;SDS011;42597;40.636;0.278;2023-04-24T05:12:42;2.40;;;0.77;;
56718;SDS011;42597;40.636;0.278;2023-04-24T05:15:08;0.60;;;0.30;;
56718;SDS011;42597;40.636;0.278;2023-04-24T05:17:34;2.33;;;0.60;;
56718;SDS011;42597;40.636;0.278;2023-04-24T05:20:00;0.70;;;0.70;;
56718;SDS011;42597;40.636;0.278;2023-04-24T05:22:26;0.73;;;0.70;;
56718;SDS011;42597;40.636;0.278;2023-04-24T05:24:52;1.70;;;0.80;;
56718;SDS011;42597;40.636;0.278;2023-04-24T05:27:18;0.77;;;0.47;;
56718;SDS011;42597;40.636;0.278;2023-04-24T05:29:44;2.95;;;0.88;;
56718;SDS011;42597;40.636;0.278;2023-04-24T05:32:10;1.08;;;0.73;;
56718;SDS011;42597;40.636;0.278;2023-04-24T05:34:36;1.80;;;0.85;;
56718;SDS011;42597;40.636;0.278;2023-04-24T05:37:01;0.57;;;0.57;;
56718;SDS011;42597;40.636;0.278;2023-04-24T05:39:28;0.60;;;0.50;;
56718;SDS011;42597;40.636;0.278;2023-04-24T05:41:53;0.88;;;0.55;;
56718;SDS011;42597;40.636;0.278;2023-04-24T05:44:20;2.30;;;0.70;;
56718;SDS011;42597;40.636;0.278;2023-04-24T05:46:45;1.00;;;0.60;;
56718;SDS011;42597;40.636;0.278;2023-04-24T05:49:11;1.52;;;0.60;;
56718;SDS011;42597;40.636;0.278;2023-04-24T05:51:37;1.95;;;0.70;;
56718;SDS011;42597;40.636;0.278;2023-04-24T05:54:04;3.88;;;1.10;;
56718;SDS011;42597;40.636;0.278;2023-04-24T05:56:30;1.83;;;0.80;;
56718;SDS011;42597;40.636;0.278;2023-04-24T05:58:56;1.85;;;0.93;;
56718;SDS011;42597;40.636;0.278;2023-04-24T06:01:22;6.80;;;1.33;;
56718;SDS011;42597;40.636;0.278;2023-04-24T06:03:48;3.60;;;0.80;;
56718;SDS011;42597;40.636;0.278;2023-04-24T06:06:14;1.83;;;0.82;;
56718;SDS011;42597;40.636;0.278;2023-04-24T06:08:40;3.17;;;0.55;;
56718;SDS011;42597;40.636;0.278;2023-04-24T06:11:07;0.60;;;0.43;;
56718;SDS011;42597;40.636;0.278;2023-04-24T06:13:33;0.88;;;0.60;;
56718;SDS011;42597;40.636;0.278;2023-04-24T06:15:58;0.93;;;0.80;;
56718;SDS011;42597;40.636;0.278;2023-04-24T06:18:24;2.40;;;0.73;;
56718;SDS011;42597;40.636;0.278;2023-04-24T06:20:50;1.15;;;0.60;;
56718;SDS011;42597;40.636;0.278;2023-04-24T06:23:16;2.03;;;1.00;;
56718;SDS011;42597;40.636;0.278;2023-04-24T06:25:42;1.77;;;0.60;;
56718;SDS011;42597;40.636;0.278;2023-04-24T06:28:08;1.40;;;0.80;;
56718;SDS011;42597;40.636;0.278;2023-04-24T06:30:34;3.75;;;0.90;;
56718;SDS011;42597;40.636;0.278;2023-04-24T06:32:59;0.73;;;0.50;;
56718;SDS011;42597;40.636;0.278;2023-04-24T06:35:25;2.30;;;0.90;;
56718;SDS011;42597;40.636;0.278;2023-04-24T06:37:51;1.13;;;0.60;;
56718;SDS011;42597;40.636;0.278;2023-04-24T06:40:17;1.15;;;0.80;;
56718;SDS011;42597;40.636;0.278;2023-04-24T06:42:43;1.27;;;0.60;;
56718;SDS011;42597;40.636;0.278;2023-04-24T06:45:09;1.83;;;0.70;;
56718;SDS011;42597;40.636;0.278;2023-04-24T06:47:36;1.55;;;0.60;;
56718;SDS011;42597;40.636;0.278;2023-04-24T06:50:03;1.02;;;0.75;;
56718;SDS011;42597;40.636;0.278;2023-04-24T06:52:29;1.42;;;0.63;;
56718;SDS011;42597;40.636;0.278;2023-04-24T06:55:01;0.50;;;0.50;;
56718;SDS011;42597;40.636;0.278;2023-04-24T06:57:28;1.55;;;0.85;;
56718;SDS011;42597;40.636;0.278;2023-04-24T06:59:54;1.55;;;0.65;;
56718;SDS011;42597;40.636;0.278;2023-04-24T07:02:19;0.77;;;0.60;;
56718;SDS011;42597;40.636;0.278;2023-04-24T07:04:45;1.73;;;0.85;;
56718;SDS011;42597;40.636;0.278;2023-04-24T07:07:12;2.22;;;0.80;;
56718;SDS011;42597;40.636;0.278;2023-04-24T07:09:39;6.50;;;1.30;;
56718;SDS011;42597;40.636;0.278;2023-04-24T07:12:10;1.23;;;0.75;;
56718;SDS011;42597;40.636;0.278;2023-04-24T07:14:37;5.63;;;0.90;;
56718;SDS011;42597;40.636;0.278;2023-04-24T07:17:03;3.22;;;0.80;;
56718;SDS011;42597;40.636;0.278;2023-04-24T07:19:30;3.33;;;1.38;;
56718;SDS011;42597;40.636;0.278;2023-04-24T07:21:56;2.83;;;1.23;;
56718;SDS011;42597;40.636;0.278;2023-04-24T07:24:23;6.90;;;1.88;;
56718;SDS011;42597;40.636;0.278;2023-04-24T07:26:50;2.42;;;1.20;;
56718;SDS011;42597;40.636;0.278;2023-04-24T07:29:17;1.15;;;0.85;;
56718;SDS011;42597;40.636;0.278;2023-04-24T07:31:43;2.92;;;1.40;;
56718;SDS011;42597;40.636;0.278;2023-04-24T07:34:08;4.28;;;1.40;;
56718;SDS011;42597;40.636;0.278;2023-04-24T07:36:34;2.08;;;0.90;;
56718;SDS011;42597;40.636;0.278;2023-04-24T07:39:00;1.05;;;0.82;;
56718;SDS011;42597;40.636;0.278;2023-04-24T07:41:26;1.50;;;1.00;;
56718;SDS011;42597;40.636;0.278;2023-04-24T07:43:53;2.03;;;1.17;;
56718;SDS011;42597;40.636;0.278;2023-04-24T07:46:19;2.15;;;1.02;;
56718;SDS011;42597;40.636;0.278;2023-04-24T07:48:45;2.47;;;0.65;;
56718;SDS011;42597;40.636;0.278;2023-04-24T07:51:13;2.15;;;0.80;;
56718;SDS011;42597;40.636;0.278;2023-04-24T07:53:40;0.50;;;0.50;;
56718;SDS011;42597;40.636;0.278;2023-04-24T07:56:06;1.67;;;0.90;;
56718;SDS011;42597;40.636;0.278;2023-04-24T07:58:32;2.50;;;0.90;;
56718;SDS011;42597;40.636;0.278;2023-04-24T08:00:58;1.45;;;1.05;;
56718;SDS011;42597;40.636;0.278;2023-04-24T08:03:24;2.08;;;0.85;;
56718;SDS011;42597;40.636;0.278;2023-04-24T08:05:50;2.08;;;1.05;;
56718;SDS011;42597;40.636;0.278;2023-04-24T08:08:16;3.03;;;0.98;;
56718;SDS011;42597;40.636;0.278;2023-04-24T08:10:42;3.83;;;1.38;;
56718;SDS011;42597;40.636;0.278;2023-04-24T08:13:08;1.58;;;0.88;;
56718;SDS011;42597;40.636;0.278;2023-04-24T08:15:34;6.55;;;1.50;;
56718;SDS011;42597;40.636;0.278;2023-04-24T08:18:00;1.80;;;0.98;;
56718;SDS011;42597;40.636;0.278;2023-04-24T08:20:26;1.60;;;1.08;;
56718;SDS011;42597;40.636;0.278;2023-04-24T08:22:51;1.75;;;0.75;;
56718;SDS011;42597;40.636;0.278;2023-04-24T08:25:17;2.90;;;1.10;;
56718;SDS011;42597;40.636;0.278;2023-04-24T08:27:44;3.70;;;1.00;;
56718;SDS011;42597;40.636;0.278;2023-04-24T08:30:10;2.38;;;0.95;;
56718;SDS011;42597;40.636;0.278;2023-04-24T08:32:36;2.15;;;1.00;;
56718;SDS011;42597;40.636;0.278;2023-04-24T08:35:02;5.47;;;1.13;;
56718;SDS011;42597;40.636;0.278;2023-04-24T08:37:28;2.08;;;1.15;;
56718;SDS011;42597;40.636;0.278;2023-04-24T08:39:54;4.25;;;1.50;;
56718;SDS011;42597;40.636;0.278;2023-04-24T08:42:20;1.20;;;0.77;;
56718;SDS011;42597;40.636;0.278;2023-04-24T08:44:48;1.38;;;1.00;;
56718;SDS011;42597;40.636;0.278;2023-04-24T08:47:15;2.63;;;1.17;;
56718;SDS011;42597;40.636;0.278;2023-04-24T08:49:41;5.25;;;1.25;;
56718;SDS011;42597;40.636;0.278;2023-04-24T08:52:08;2.53;;;1.17;;
56718;SDS011;42597;40.636;0.278;2023-04-24T08:54:38;4.03;;;1.27;;
56718;SDS011;42597;40.636;0.278;2023-04-24T08:57:05;1.35;;;0.93;;
56718;SDS011;42597;40.636;0.278;2023-04-24T08:59:36;1.80;;;1.10;;
56718;SDS011;42597;40.636;0.278;2023-04-24T09:02:03;2.67;;;0.73;;
56718;SDS011;42597;40.636;0.278;2023-04-24T09:04:30;3.20;;;1.38;;
56718;SDS011;42597;40.636;0.278;2023-04-24T09:06:58;1.80;;;1.13;;
56718;SDS011;42597;40.636;0.278;2023-04-24T09:09:25;4.25;;;1.50;;
56718;SDS011;42597;40.636;0.278;2023-04-24T09:11:51;4.57;;;1.48;;
56718;SDS011;42597;40.636;0.278;2023-04-24T09:14:20;3.58;;;0.77;;
56718;SDS011;42597;40.636;0.278;2023-04-24T09:16:48;1.95;;;1.00;;
56718;SDS011;42597;40.636;0.278;2023-04-24T09:19:14;2.15;;;1.15;;
56718;SDS011;42597;40.636;0.278;2023-04-24T09:21:39;1.90;;;1.05;;
56718;SDS011;42597;40.636;0.278;2023-04-24T09:24:08;2.05;;;1.02;;
56718;SDS011;42597;40.636;0.278;2023-04-24T09:26:43;3.90;;;1.50;;
56718;SDS011;42597;40.636;0.278;2023-04-24T09:29:14;5.45;;;1.10;;
56718;SDS011;42597;40.636;0.278;2023-04-24T09:31:42;2.75;;;1.27;;
56718;SDS011;42597;40.636;0.278;2023-04-24T09:34:08;1.95;;;1.00;;
56718;SDS011;42597;40.636;0.278;2023-04-24T09:36:38;1.63;;;0.95;;
56718;SDS011;42597;40.636;0.278;2023-04-24T09:39:06;2.15;;;1.08;;
56718;SDS011;42597;40.636;0.278;2023-04-24T09:41:36;1.92;;;1.08;;
56718;SDS011;42597;40.636;0.278;2023-04-24T09:44:16;1.30;;;0.88;;
56718;SDS011;42597;40.636;0.278;2023-04-24T09:46:50;1.75;;;0.95;;
56718;SDS011;42597;40.636;0.278;2023-04-24T09:51:51;2.47;;;1.20;;
56718;SDS011;42597;40.636;0.278;2023-04-24T09:54:18;3.00;;;1.17;;
56718;SDS011;42597;40.636;0.278;2023-04-24T09:56:49;5.07;;;1.08;;
56718;SDS011;42597;40.636;0.278;2023-04-24T09:59:16;2.20;;;1.05;;
56718;SDS011;42597;40.636;0.278;2023-04-24T10:01:43;2.38;;;1.20;;
56718;SDS011;42597;40.636;0.278;2023-04-24T10:06:45;2.08;;;0.90;;
56718;SDS011;42597;40.636;0.278;2023-04-24T10:09:14;2.53;;;0.80;;
56718;SDS011;42597;40.636;0.278;2023-04-24T10:11:44;6.72;;;1.40;;
56718;SDS011;42597;40.636;0.278;2023-04-24T10:14:13;2.95;;;1.45;;
56718;SDS011;42597;40.636;0.278;2023-04-24T10:16:40;2.47;;;1.30;;
56718;SDS011;42597;40.636;0.278;2023-04-24T10:19:07;1.42;;;0.85;;
56718;SDS011;42597;40.636;0.278;2023-04-24T10:21:34;2.75;;;1.05;;
56718;SDS011;42597;40.636;0.278;2023-04-24T10:24:00;1.80;;;0.90;;
56718;SDS011;42597;40.636;0.278;2023-04-24T10:26:28;2.53;;;1.45;;
56718;SDS011;42597;40.636;0.278;2023-04-24T10:28:54;1.83;;;1.05;;
56718;SDS011;42597;40.636;0.278;2023-04-24T10:31:24;4.28;;;1.48;;
56718;SDS011;42597;40.636;0.278;2023-04-24T10:33:51;2.92;;;1.13;;
56718;SDS011;42597;40.636;0.278;2023-04-24T10:36:18;3.13;;;1.42;;
56718;SDS011;42597;40.636;0.278;2023-04-24T10:38:48;4.80;;;1.13;;
56718;SDS011;42597;40.636;0.278;2023-04-24T10:41:16;3.58;;;1.33;;
56718;SDS011;42597;40.636;0.278;2023-04-24T10:44:10;3.08;;;1.23;;
56718;SDS011;42597;40.636;0.278;2023-04-24T10:46:35;17.27;;;7.53;;
56718;SDS011;42597;40.636;0.278;2023-04-24T10:49:05;7.90;;;3.42;;
56718;SDS011;42597;40.636;0.278;2023-04-24T10:51:44;8.57;;;2.45;;
56718;SDS011;42597;40.636;0.278;2023-04-24T10:54:22;3.25;;;1.40;;
56718;SDS011;42597;40.636;0.278;2023-04-24T10:57:25;4.95;;;2.35;;
56718;SDS011;42597;40.636;0.278;2023-04-24T11:03:04;5.03;;;2.20;;
56718;SDS011;42597;40.636;0.278;2023-04-24T11:08:30;4.72;;;2.60;;
56718;SDS011;42597;40.636;0.278;2023-04-24T11:11:02;10.30;;;5.10;;
56718;SDS011;42597;40.636;0.278;2023-04-24T11:19:01;7.25;;;3.53;;
56718;SDS011;42597;40.636;0.278;2023-04-24T11:21:43;7.18;;;3.35;;
56718;SDS011;42597;40.636;0.278;2023-04-24T11:24:28;8.27;;;3.92;;
56718;SDS011;42597;40.636;0.278;2023-04-24T11:32:18;6.45;;;3.10;;
56718;SDS011;42597;40.636;0.278;2023-04-24T11:34:50;6.88;;;2.78;;
56718;SDS011;42597;40.636;0.278;2023-04-24T11:37:17;6.35;;;2.75;;
56718;SDS011;42597;40.636;0.278;2023-04-24T11:39:43;7.10;;;2.80;;
56718;SDS011;42597;40.636;0.278;2023-04-24T11:42:09;5.43;;;2.63;;
56718;SDS011;42597;40.636;0.278;2023-04-24T11:44:35;7.85;;;2.40;;
56718;SDS011;42597;40.636;0.278;2023-04-24T11:47:05;5.82;;;2.70;;
56718;SDS011;42597;40.636;0.278;2023-04-24T11:49:32;7.18;;;3.03;;
56718;SDS011;42597;40.636;0.278;2023-04-24T11:51:59;7.40;;;2.78;;
56718;SDS011;42597;40.636;0.278;2023-04-24T11:54:26;5.10;;;2.25;;
56718;SDS011;42597;40.636;0.278;2023-04-24T11:56:52;6.82;;;2.58;;
56718;SDS011;42597;40.636;0.278;2023-04-24T11:59:17;3.53;;;2.20;;
56718;SDS011;42597;40.636;0.278;2023-04-24T12:01:46;5.70;;;2.55;;
56718;SDS011;42597;40.636;0.278;2023-04-24T12:04:13;7.30;;;2.42;;
56718;SDS011;42597;40.636;0.278;2023-04-24T12:06:58;8.45;;;2.17;;
56718;SDS011;42597;40.636;0.278;2023-04-24T12:09:25;3.63;;;2.10;;
56718;SDS011;42597;40.636;0.278;2023-04-24T12:11:55;4.43;;;2.30;;
56718;SDS011;42597;40.636;0.278;2023-04-24T12:14:24;5.25;;;2.20;;
56718;SDS011;42597;40.636;0.278;2023-04-24T12:16:50;5.70;;;2.45;;
56718;SDS011;42597;40.636;0.278;2023-04-24T12:19:22;4.00;;;2.05;;
56718;SDS011;42597;40.636;0.278;2023-04-24T12:22:01;3.97;;;2.30;;
56718;SDS011;42597;40.636;0.278;2023-04-24T12:24:28;6.97;;;1.95;;
56718;SDS011;42597;40.636;0.278;2023-04-24T12:26:56;9.95;;;2.20;;
56718;SDS011;42597;40.636;0.278;2023-04-24T12:29:23;4.55;;;1.90;;
56718;SDS011;42597;40.636;0.278;2023-04-24T12:31:50;5.20;;;2.17;;
56718;SDS011;42597;40.636;0.278;2023-04-24T12:34:17;5.13;;;1.50;;
56718;SDS011;42597;40.636;0.278;2023-04-24T12:36:49;5.25;;;1.80;;
56718;SDS011;42597;40.636;0.278;2023-04-24T12:39:16;4.20;;;1.73;;
56718;SDS011;42597;40.636;0.278;2023-04-24T12:44:28;3.97;;;1.70;;
56718;SDS011;42597;40.636;0.278;2023-04-24T12:46:59;6.78;;;2.28;;
56718;SDS011;42597;40.636;0.278;2023-04-24T12:49:26;4.32;;;1.95;;
56718;SDS011;42597;40.636;0.278;2023-04-24T12:51:53;7.78;;;2.30;;
56718;SDS011;42597;40.636;0.278;2023-04-24T12:54:19;7.05;;;2.20;;
56718;SDS011;42597;40.636;0.278;2023-04-24T12:56:45;4.13;;;2.08;;
56718;SDS011;42597;40.636;0.278;2023-04-24T12:59:10;5.10;;;2.00;;
56718;SDS011;42597;40.636;0.278;2023-04-24T13:01:36;5.72;;;2.13;;
56718;SDS011;42597;40.636;0.278;2023-04-24T13:04:02;5.30;;;2.25;;
56718;SDS011;42597;40.636;0.278;2023-04-24T13:06:27;4.47;;;2.17;;
56718;SDS011;42597;40.636;0.278;2023-04-24T13:08:53;6.20;;;2.25;;
56718;SDS011;42597;40.636;0.278;2023-04-24T13:11:20;6.15;;;1.83;;
56718;SDS011;42597;40.636;0.278;2023-04-24T13:13:47;3.83;;;2.00;;
56718;SDS011;42597;40.636;0.278;2023-04-24T13:16:13;4.28;;;2.13;;
56718;SDS011;42597;40.636;0.278;2023-04-24T13:18:38;2.83;;;1.90;;
56718;SDS011;42597;40.636;0.278;2023-04-24T13:21:05;2.90;;;1.75;;
56718;SDS011;42597;40.636;0.278;2023-04-24T13:23:30;5.80;;;2.60;;
56718;SDS011;42597;40.636;0.278;2023-04-24T13:25:56;5.72;;;2.42;;
56718;SDS011;42597;40.636;0.278;2023-04-24T13:28:23;6.57;;;2.30;;
56718;SDS011;42597;40.636;0.278;2023-04-24T13:30:52;7.00;;;2.45;;
56718;SDS011;42597;40.636;0.278;2023-04-24T13:33:18;4.80;;;1.85;;
56718;SDS011;42597;40.636;0.278;2023-04-24T13:35:44;4.70;;;2.50;;
56718;SDS011;42597;40.636;0.278;2023-04-24T13:38:10;3.58;;;1.92;;
56718;SDS011;42597;40.636;0.278;2023-04-24T13:40:35;7.65;;;2.47;;
56718;SDS011;42597;40.636;0.278;2023-04-24T13:43:01;4.40;;;2.70;;
56718;SDS011;42597;40.636;0.278;2023-04-24T13:45:28;5.18;;;1.80;;
56718;SDS011;42597;40.636;0.278;2023-04-24T13:47:53;3.85;;;1.80;;
56718;SDS011;42597;40.636;0.278;2023-04-24T13:50:19;8.18;;;2.70;;
56718;SDS011;42597;40.636;0.278;2023-04-24T13:52:46;7.45;;;2.55;;
56718;SDS011;42597;40.636;0.278;2023-04-24T13:55:11;8.43;;;3.45;;
56718;SDS011;42597;40.636;0.278;2023-04-24T13:57:37;15.60;;;7.45;;
56718;SDS011;42597;40.636;0.278;2023-04-24T14:00:03;4.13;;;2.05;;
56718;SDS011;42597;40.636;0.278;2023-04-24T14:02:31;7.53;;;2.47;;
56718;SDS011;42597;40.636;0.278;2023-04-24T14:04:57;7.07;;;2.60;;
56718;SDS011;42597;40.636;0.278;2023-04-24T14:07:23;7.85;;;2.60;;
56718;SDS011;42597;40.636;0.278;2023-04-24T14:09:49;6.70;;;2.10;;
56718;SDS011;42597;40.636;0.278;2023-04-24T14:12:15;3.92;;;1.90;;
56718;SDS011;42597;40.636;0.278;2023-04-24T14:14:44;5.25;;;2.30;;
56718;SDS011;42597;40.636;0.278;2023-04-24T14:17:11;6.40;;;2.50;;
56718;SDS011;42597;40.636;0.278;2023-04-24T14:19:37;8.02;;;2.97;;
56718;SDS011;42597;40.636;0.278;2023-04-24T14:22:03;4.43;;;2.00;;
56718;SDS011;42597;40.636;0.278;2023-04-24T14:24:28;6.55;;;2.25;;
56718;SDS011;42597;40.636;0.278;2023-04-24T14:26:54;4.95;;;2.42;;
56718;SDS011;42597;40.636;0.278;2023-04-24T14:29:21;5.85;;;2.58;;
56718;SDS011;42597;40.636;0.278;2023-04-24T14:31:47;4.90;;;2.70;;
56718;SDS011;42597;40.636;0.278;2023-04-24T14:34:13;3.55;;;1.73;;
56718;SDS011;42597;40.636;0.278;2023-04-24T14:36:39;9.65;;;2.58;;
56718;SDS011;42597;40.636;0.278;2023-04-24T14:39:05;2.85;;;1.65;;
56718;SDS011;42597;40.636;0.278;2023-04-24T14:41:32;5.45;;;2.88;;
56718;SDS011;42597;40.636;0.278;2023-04-24T14:46:27;8.38;;;2.08;;
56718;SDS011;42597;40.636;0.278;2023-04-24T14:48:55;4.68;;;2.10;;
56718;SDS011;42597;40.636;0.278;2023-04-24T14:51:21;4.28;;;2.25;;
56718;SDS011;42597;40.636;0.278;2023-04-24T14:53:47;4.10;;;2.13;;
56718;SDS011;42597;40.636;0.278;2023-04-24T14:56:13;6.32;;;2.35;;
56718;SDS011;42597;40.636;0.278;2023-04-24T14:58:40;4.13;;;1.92;;
56718;SDS011;42597;40.636;0.278;2023-04-24T15:01:06;4.90;;;2.42;;
56718;SDS011;42597;40.636;0.278;2023-04-24T15:03:31;4.63;;;2.42;;
56718;SDS011;42597;40.636;0.278;2023-04-24T15:05:57;7.03;;;2.47;;
56718;SDS011;42597;40.636;0.278;2023-04-24T15:08:23;12.18;;;2.00;;
56718;SDS011;42597;40.636;0.278;2023-04-24T15:10:49;6.72;;;2.75;;
56718;SDS011;42597;40.636;0.278;2023-04-24T15:13:15;4.93;;;2.25;;